Archival Weather

Chicago O'Hare International

Chicago, Illinois (KORD)

Report from: Wednesday, August 23, 2023 9:51 PM CDT
Current time: Monday, July 22, 2024 5:33 AM CDT

Current weather – Weather history – Daily summaries
Weather forecast

Temperature31.7°C (89.1°F)
Heat index41.3°C (106.4°F)
Dew point26.7°C (80.1°F)
Winds 11 kts (5.7 m/s, 12.7 mph) Southwest (230°)
Visibility10 mi. (16.1 km)
Clouds Sky clear
Altimeter29.86 in.Hg (1011 mB)
Relative humidity75 %
Density altitude2,472 ft. (753 m)
Sea-level pressure101.0 kPa (1010 mB, 29.83 in.Hg)
Remarks Automated weather observing station with precipitation discriminator
Pressure rising, then falling
Flight conditions Visual Meteorological Conditions
Raw dataKORD 240251Z 23011KT 10SM CLR 32/27 A2986 RMK AO2 SLP103 T03170267 50003
An error has occurred. This application may no longer respond until reloaded. Reload 🗙